Grand Junction Regional Airport
KGJT : rendu visible

Aérodrome :











RETROUVEZ-NOUS SUR...

 
LOGIN :

S'inscrire | Disclaimer

   EN    FR    IT 

 









Légende :    VFR   VFR Marginal   IFR   IFR Intensif   IFR Très Intensif
Visi : 
Plafond : 
>= 8 km
>= 3000ft
5 à 8 km
1000 à 3000 ft
1500m à 5 km
500 à 1000 ft
800 à 1500m
200 à 500 ft
< 800m
< 200 ft
Symboles :   Orages  Brouillard  Fortes neiges  Fortes précipitations  Vent > 20 kt






- Altitude de l'aérodrome : 4858 ft
- Code IATA : GJT


KGJT - Grand Junction Regional

DERNIER METAR :
  • 251153Z AUTO 12013KT 10SM CLR 14/M02 A3003 RMK AO2 SLP103 T01441017 10222 20139 53006

METARs EXPIRÉS :
  • 251053Z AUTO 10011KT 10SM CLR 15/M02 A3003 RMK AO2 SLP100 T01501017
  • 250953Z AUTO 11008KT 10SM CLR 16/M02 A3001 RMK AO2 SLP097 T01561017

TAF KGJT
Valide du 25 à 12h jusqu'au 26 à 12h UTC


251121Z 2512/2612 11013KT P6SM FEW250
FM251600 16007KT P6SM SKC
FM251900 27010KT P6SM FEW250
FM252100 27014G23KT P6SM SKC
FM260300 09005KT P6SM SKC
FM260700 10007KT P6SM SKC
FIR KZDV / Amérique du Nord



MET'MAP, la Météo Aéronautique d'un coup d'oeil ! - Copyright ORBIFLY Décembre 2007 - Disclaimer

ORBIFLY MET'MAP TEAM :

Programmation & Développement : Alexandra Zaïnal
Sur une idée originale de : Baudouin d'Aumeries
Assistance à la programmation : Marc-Olivier Méhu
Soutien technique & logistique : Manuel Goepfert

Contact : metmap@orbifly.com




SOURCES & CREDITS :

   NOAA       Earth
Advisory